Time;durP1;ratioP1;P1;durP2;ratioP2;P2;SDS_P1;SDS_P2;PMS_P1;PMS_P2;Temp;Humidity;BMP_temperature;BMP_pressure;BME280_temperature;BME280_humidity;BME280_pressure;Samples;Min_cycle;Max_cycle;Signal;HPM_P1;HPM_P2
2023/06/06 00:00:45;;;;;;;7.25;4.15;;;;;;;15.32;68.75;101223.50;6261436;22;20050;-78
2023/06/06 00:03:11;;;;;;;4.07;3.08;;;;;;;15.29;68.89;101223.56;6260651;22;20016;-81
2023/06/06 00:05:38;;;;;;;3.03;2.42;;;;;;;15.27;69.47;101225.34;6258652;22;20019;-81
2023/06/06 00:08:05;;;;;;;3.85;3.30;;;;;;;15.21;69.18;101222.81;6254018;22;20016;-78
2023/06/06 00:10:31;;;;;;;4.97;2.75;;;;;;;15.22;69.81;101227.22;6252339;22;20197;-77
2023/06/06 00:13:01;;;;;;;4.03;3.15;;;;;;;15.19;70.19;101227.28;6250700;22;20016;-78
2023/06/06 00:15:28;;;;;;;6.47;3.30;;;;;;;15.11;70.72;101227.41;6247386;22;20019;-78
2023/06/06 00:17:56;;;;;;;4.38;3.00;;;;;;;15.03;70.98;101227.56;6246519;22;20035;-84
2023/06/06 00:20:23;;;;;;;5.20;2.60;;;;;;;15.02;71.56;101233.72;6260940;22;20015;-89
2023/06/06 00:22:53;;;;;;;3.08;2.78;;;;;;;15.02;71.25;101233.72;6265050;22;20012;-83
2023/06/06 00:25:20;;;;;;;5.60;3.13;;;;;;;14.96;71.61;101235.59;6256488;22;20016;-82
2023/06/06 00:27:46;;;;;;;5.15;3.17;;;;;;;14.88;72.37;101233.97;6249378;22;20020;-78
2023/06/06 00:30:13;;;;;;;3.10;2.80;;;;;;;14.87;72.54;101234.00;6247018;22;20015;-88
2023/06/06 00:32:40;;;;;;;3.38;3.05;;;;;;;14.84;72.52;101234.06;6218631;22;20061;-81
2023/06/06 00:35:06;;;;;;;3.20;2.80;;;;;;;14.81;73.19;101237.63;6242765;22;20024;-82
2023/06/06 00:37:33;;;;;;;3.00;2.80;;;;;;;14.77;73.41;101240.31;6220492;22;20016;-80
2023/06/06 00:39:59;;;;;;;8.40;3.17;;;;;;;14.69;73.82;101238.69;6252955;22;20074;-83
2023/06/06 00:42:26;;;;;;;3.78;2.50;;;;;;;14.65;74.37;101233.50;6230898;23;20121;-78
2023/06/06 00:44:52;;;;;;;5.18;3.80;;;;;;;14.55;74.87;101238.88;6221501;23;20031;-78
2023/06/06 00:47:18;;;;;;;4.30;2.97;;;;;;;14.47;75.35;101235.50;6215825;23;20331;-82
2023/06/06 00:49:47;;;;;;;5.40;3.25;;;;;;;14.40;76.21;101244.38;6216258;23;20435;-78
2023/06/06 00:52:14;;;;;;;4.18;3.20;;;;;;;14.35;76.89;101246.22;6213738;23;20479;-81
2023/06/06 00:54:41;;;;;;;5.10;3.03;;;;;;;14.31;77.63;101239.25;6241740;23;20023;-80
2023/06/06 00:57:09;;;;;;;5.15;3.08;;;;;;;14.24;77.69;101235.84;6215201;23;20024;-78
2023/06/06 00:59:37;;;;;;;4.97;3.65;;;;;;;14.22;78.48;101230.63;6242084;23;20021;-78
2023/06/06 01:02:09;;;;;;;3.97;3.15;;;;;;;14.16;78.61;101240.38;6214441;23;20019;-79
2023/06/06 01:04:41;;;;;;;4.15;3.78;;;;;;;14.10;78.95;101241.31;6216252;23;20044;-78
2023/06/06 01:07:09;;;;;;;4.28;3.60;;;;;;;14.07;79.52;101236.09;6214936;23;20019;-80
2023/06/06 01:09:37;;;;;;;3.95;3.55;;;;;;;14.02;79.82;101241.41;6214526;23;20020;-80
2023/06/06 01:12:25;;;;;;;5.00;3.50;;;;;;;14.00;80.54;101240.59;6213215;23;20024;-85
2023/06/06 01:15:01;;;;;;;5.60;3.50;;;;;;;13.93;80.68;101238.06;6240772;23;20047;-77
2023/06/06 01:17:29;;;;;;;3.38;3.08;;;;;;;13.90;80.76;101239.81;6213425;23;20096;-77
2023/06/06 01:19:57;;;;;;;5.90;3.60;;;;;;;13.85;80.58;101240.78;6214223;23;20028;-83
2023/06/06 01:22:27;;;;;;;7.60;3.72;;;;;;;13.80;81.26;101243.47;6212979;23;20292;-77
2023/06/06 01:24:56;;;;;;;3.58;3.20;;;;;;;13.76;82.24;101233.88;6214768;23;20099;-77
2023/06/06 01:27:23;;;;;;;3.03;2.72;;;;;;;13.68;82.58;101233.97;6210335;23;20023;-84
2023/06/06 01:29:50;;;;;;;5.18;3.47;;;;;;;13.66;83.40;101226.97;6214940;23;20019;-79
2023/06/06 01:32:28;;;;;;;3.63;3.08;;;;;;;13.61;83.62;101231.44;6188102;23;20016;-78
2023/06/06 01:35:34;;;;;;;5.13;3.17;;;;;;;13.55;84.40;101237.66;6216286;23;20497;-77
2023/06/06 01:38:39;;;;;;;5.60;3.28;;;;;;;13.59;85.00;101238.50;6209052;23;20024;-77
2023/06/06 01:41:07;;;;;;;7.88;4.05;;;;;;;13.55;84.88;101242.91;6242237;22;20070;-82
2023/06/06 01:43:35;;;;;;;3.47;3.28;;;;;;;13.50;84.96;101245.56;6221382;22;20020;-77
2023/06/06 01:46:02;;;;;;;4.10;3.75;;;;;;;13.47;85.48;101244.78;6246637;22;20045;-82
2023/06/06 01:48:29;;;;;;;4.78;3.05;;;;;;;13.42;86.04;101238.69;6245962;22;20019;-77
2023/06/06 01:50:56;;;;;;;3.80;3.08;;;;;;;13.36;86.05;101229.06;6246666;22;20024;-79
2023/06/06 01:53:22;;;;;;;6.53;3.42;;;;;;;13.33;86.57;101237.00;6245496;22;20023;-77
2023/06/06 01:55:50;;;;;;;4.55;3.45;;;;;;;13.33;86.95;101235.22;6246199;22;20016;-80
2023/06/06 01:58:17;;;;;;;4.03;3.40;;;;;;;13.29;87.15;101232.66;6245672;22;20020;-77
2023/06/06 02:00:44;;;;;;;4.43;3.58;;;;;;;13.25;87.44;101239.69;6244566;22;20026;-78
2023/06/06 02:03:11;;;;;;;5.60;3.45;;;;;;;13.23;87.41;101231.84;6243830;22;20016;-80
2023/06/06 02:05:38;;;;;;;4.80;3.47;;;;;;;13.19;87.44;101230.13;6219172;22;20042;-82
2023/06/06 02:08:05;;;;;;;4.18;3.30;;;;;;;13.17;87.81;101231.88;6243884;22;20012;-76
2023/06/06 02:10:32;;;;;;;9.55;3.45;;;;;;;13.12;88.07;101231.06;6243393;22;20015;-79
2023/06/06 02:12:58;;;;;;;4.82;2.97;;;;;;;13.07;88.35;101233.75;6244877;22;20015;-77
2023/06/06 02:15:26;;;;;;;3.42;3.10;;;;;;;13.08;88.50;101226.72;6244016;22;20020;-76
2023/06/06 02:17:53;;;;;;;5.47;3.55;;;;;;;13.08;88.74;101232.00;6244485;22;20061;-77
2023/06/06 02:20:20;;;;;;;6.28;3.30;;;;;;;13.02;89.65;101239.94;6244072;22;20020;-81
2023/06/06 02:22:47;;;;;;;5.13;4.18;;;;;;;12.99;90.21;101234.72;6244229;22;20047;-77
2023/06/06 02:25:13;;;;;;;4.05;3.33;;;;;;;12.94;90.19;101237.38;6244699;22;20024;-78
2023/06/06 02:27:43;;;;;;;5.75;3.55;;;;;;;12.91;90.82;101235.63;6250790;22;20015;-79
2023/06/06 02:30:10;;;;;;;5.65;3.65;;;;;;;12.87;90.52;101236.56;6241901;22;20122;-80
2023/06/06 02:32:37;;;;;;;4.53;3.40;;;;;;;12.82;90.93;101232.25;6269348;22;20058;-82
2023/06/06 02:35:04;;;;;;;5.43;4.65;;;;;;;12.78;92.29;101235.78;6245146;22;20056;-80
2023/06/06 02:37:32;;;;;;;5.53;3.72;;;;;;;12.72;92.84;101240.22;6241897;22;20024;-78
2023/06/06 02:39:59;;;;;;;7.40;3.90;;;;;;;12.69;93.63;101231.47;6245151;22;20713;-77
2023/06/06 02:42:25;;;;;;;4.30;3.80;;;;;;;12.65;94.12;101245.53;6222897;23;20074;-78
2023/06/06 02:44:52;;;;;;;4.00;3.60;;;;;;;12.62;94.02;101243.78;6238972;23;20024;-78
2023/06/06 02:47:18;;;;;;;6.05;3.83;;;;;;;12.60;94.49;101244.69;6212098;23;20451;-79
2023/06/06 02:49:46;;;;;;;7.90;4.63;;;;;;;12.59;95.45;101246.41;6212430;23;20042;-76
2023/06/06 02:52:13;;;;;;;5.22;4.18;;;;;;;12.57;96.10;101245.59;6213996;23;20047;-79
2023/06/06 02:54:40;;;;;;;5.38;4.28;;;;;;;12.50;95.47;101247.38;6215005;23;20016;-81
2023/06/06 02:57:07;;;;;;;5.45;4.18;;;;;;;12.51;96.16;101241.22;6213281;23;20024;-85
2023/06/06 02:59:33;;;;;;;5.97;3.60;;;;;;;12.56;96.55;101243.84;6211358;23;20020;-77
2023/06/06 03:02:01;;;;;;;6.00;4.53;;;;;;;12.53;97.00;101247.34;6211171;23;20012;-78
2023/06/06 03:04:27;;;;;;;4.43;3.53;;;;;;;12.47;97.09;101246.53;6239798;23;20024;-77
2023/06/06 03:06:54;;;;;;;4.80;4.30;;;;;;;12.45;97.32;101241.28;6188371;23;20021;-77
2023/06/06 03:09:20;;;;;;;4.07;3.67;;;;;;;12.42;97.39;101246.56;6213142;23;20038;-80
2023/06/06 03:11:47;;;;;;;4.13;3.78;;;;;;;12.40;98.04;101250.97;6211905;23;20020;-80
2023/06/06 03:14:13;;;;;;;6.70;5.10;;;;;;;12.35;98.22;101244.88;6211236;23;20028;-82
2023/06/06 03:16:39;;;;;;;5.55;3.72;;;;;;;12.34;99.12;101251.84;6185547;23;20016;-78
2023/06/06 03:19:07;;;;;;;6.63;4.00;;;;;;;12.31;98.65;101251.03;6186033;23;20020;-82
2023/06/06 03:21:34;;;;;;;5.20;4.65;;;;;;;12.27;99.61;101249.28;6212093;23;20347;-80
2023/06/06 03:24:01;;;;;;;6.43;4.95;;;;;;;12.26;99.63;101239.69;6215352;23;20020;-79
2023/06/06 03:26:28;;;;;;;5.30;4.78;;;;;;;12.27;99.54;101255.41;6213020;23;20225;-78
2023/06/06 03:28:56;;;;;;;6.05;4.45;;;;;;;12.31;99.97;101245.78;6214291;23;20015;-80
2023/06/06 03:31:24;;;;;;;5.80;4.18;;;;;;;12.33;99.96;101251.88;6188034;23;20119;-78
2023/06/06 03:33:51;;;;;;;4.90;4.00;;;;;;;12.30;100.00;101249.28;6214058;23;20058;-78
2023/06/06 03:36:18;;;;;;;11.13;5.13;;;;;;;12.30;100.00;101252.75;6210860;22;20530;-79
2023/06/06 03:38:44;;;;;;;6.43;4.93;;;;;;;12.28;100.00;101243.16;6214669;23;20027;-78
2023/06/06 03:41:11;;;;;;;4.97;4.57;;;;;;;12.31;100.00;101254.50;6217111;22;20070;-83
2023/06/06 03:43:39;;;;;;;7.72;4.50;;;;;;;12.30;100.00;101250.13;6240376;22;20027;-78
2023/06/06 03:46:05;;;;;;;5.47;4.30;;;;;;;12.26;100.00;101244.94;6243971;22;20026;-89
2023/06/06 03:48:32;;;;;;;7.32;4.93;;;;;;;12.24;100.00;101242.28;6243977;22;20019;-79
2023/06/06 03:50:58;;;;;;;9.88;5.43;;;;;;;12.28;100.00;101248.41;6243827;22;20016;-79
2023/06/06 03:53:24;;;;;;;9.35;5.05;;;;;;;12.29;100.00;101250.16;6241898;22;20016;-77
2023/06/06 03:55:51;;;;;;;11.48;5.88;;;;;;;12.31;100.00;101245.78;6269572;22;20019;-77
2023/06/06 03:58:18;;;;;;;6.60;4.63;;;;;;;12.32;100.00;101251.00;6243272;22;20035;-81
2023/06/06 04:00:45;;;;;;;6.10;5.20;;;;;;;12.35;100.00;101245.72;6219489;22;20430;-79
2023/06/06 04:03:12;;;;;;;5.28;4.55;;;;;;;12.40;100.00;101249.19;6244476;22;20537;-78
2023/06/06 04:05:39;;;;;;;7.53;4.97;;;;;;;12.44;100.00;101250.06;6245229;22;20020;-84
2023/06/06 04:08:07;;;;;;;11.55;5.72;;;;;;;12.48;100.00;101250.91;6245462;22;20091;-88
2023/06/06 04:10:34;;;;;;;6.10;4.72;;;;;;;12.49;100.00;101248.25;6220833;22;20023;-77
2023/06/06 04:13:01;;;;;;;6.32;5.28;;;;;;;12.55;99.96;101239.44;6245310;22;20012;-88
2023/06/06 04:15:27;;;;;;;5.53;4.80;;;;;;;12.61;99.43;101252.53;6221025;22;20726;-77
2023/06/06 04:17:54;;;;;;;8.43;5.18;;;;;;;12.66;99.25;101249.88;6246943;22;20016;-77
2023/06/06 04:20:22;;;;;;;7.13;5.20;;;;;;;12.71;98.93;101246.34;6244825;22;20016;-78
2023/06/06 04:22:51;;;;;;;7.50;5.30;;;;;;;12.78;98.45;101255.03;6217139;22;20043;-81
2023/06/06 04:25:18;;;;;;;6.13;4.72;;;;;;;12.79;98.49;101258.53;6242582;22;20028;-79
2023/06/06 04:27:45;;;;;;;5.90;4.47;;;;;;;12.74;98.42;101258.56;6244811;22;20019;-80
2023/06/06 04:30:13;;;;;;;11.93;5.47;;;;;;;12.68;98.34;101262.09;6245492;22;20269;-77
2023/06/06 04:32:40;;;;;;;5.72;4.85;;;;;;;12.65;98.85;101264.78;6244884;22;20776;-81
2023/06/06 04:35:11;;;;;;;10.82;5.85;;;;;;;12.61;98.84;101256.94;6245850;22;20031;-77
2023/06/06 04:37:39;;;;;;;8.85;6.30;;;;;;;12.62;99.02;101258.66;6241951;22;20283;-80
2023/06/06 04:40:10;;;;;;;5.25;4.75;;;;;;;12.58;99.38;101263.09;6245559;22;20553;-84
2023/06/06 04:42:37;;;;;;;10.98;6.03;;;;;;;12.56;99.76;101270.09;6244582;22;20027;-79
2023/06/06 04:45:05;;;;;;;11.18;6.60;;;;;;;12.50;99.75;101265.78;6246176;22;20023;-80
2023/06/06 04:47:32;;;;;;;8.23;5.60;;;;;;;12.47;100.00;101264.91;6245025;22;20023;-77
2023/06/06 04:49:59;;;;;;;7.72;6.03;;;;;;;12.46;100.00;101268.41;6245015;22;20030;-83
2023/06/06 04:52:26;;;;;;;7.90;5.93;;;;;;;12.46;100.00;101265.78;6243986;22;20098;-79
2023/06/06 04:54:55;;;;;;;7.05;5.60;;;;;;;12.44;100.00;101257.94;6244687;22;20023;-82
2023/06/06 04:57:23;;;;;;;8.23;5.90;;;;;;;12.46;100.00;101265.78;6246302;22;20015;-81
2023/06/06 04:59:51;;;;;;;8.63;6.80;;;;;;;12.46;100.00;101264.03;6246287;22;20015;-79
2023/06/06 05:02:22;;;;;;;9.32;5.78;;;;;;;12.48;100.00;101267.53;6271769;22;20020;-83
2023/06/06 05:04:53;;;;;;;7.78;5.95;;;;;;;12.49;99.92;101258.78;6220943;22;20090;-81
2023/06/06 05:07:23;;;;;;;7.30;5.50;;;;;;;12.55;100.00;101245.59;6224774;22;20015;-80
2023/06/06 05:09:54;;;;;;;10.00;7.25;;;;;;;12.61;99.74;101256.94;6224874;22;20024;-78
2023/06/06 05:12:21;;;;;;;7.03;5.57;;;;;;;12.65;99.21;101262.16;6247233;22;20019;-80
2023/06/06 05:14:48;;;;;;;15.88;6.20;;;;;;;12.78;98.99;101264.69;6246935;22;20514;-79
2023/06/06 05:17:20;;;;;;;10.93;7.22;;;;;;;12.92;98.28;101262.81;6245283;22;20023;-80
2023/06/06 05:19:46;;;;;;;10.85;6.13;;;;;;;13.07;97.46;101265.31;6246433;22;20624;-78
2023/06/06 05:22:17;;;;;;;7.90;6.00;;;;;;;13.21;97.05;101269.53;6247077;22;20024;-78
2023/06/06 05:24:44;;;;;;;7.93;6.07;;;;;;;13.35;96.26;101266.75;6247243;22;20082;-78
2023/06/06 05:27:11;;;;;;;6.03;5.22;;;;;;;13.55;95.14;101263.94;6220823;22;20007;-78
2023/06/06 05:29:38;;;;;;;9.52;5.97;;;;;;;13.78;94.19;101266.31;6220391;22;20023;-79
2023/06/06 05:32:06;;;;;;;11.52;5.65;;;;;;;13.98;92.92;101259.91;6245139;22;20420;-80
2023/06/06 05:34:34;;;;;;;9.07;4.85;;;;;;;14.21;91.61;101262.25;6245670;22;20019;-78
2023/06/06 05:37:01;;;;;;;10.52;5.72;;;;;;;14.39;90.41;101256.69;6247441;22;20022;-78
2023/06/06 05:39:27;;;;;;;8.90;6.60;;;;;;;14.56;89.24;101258.19;6221269;22;20065;-78
2023/06/06 05:41:55;;;;;;;6.68;5.28;;;;;;;14.81;88.18;101257.81;6245908;22;20015;-78
2023/06/06 05:44:24;;;;;;;6.68;5.80;;;;;;;15.02;87.32;101251.31;6246482;22;20022;-83
2023/06/06 05:46:55;;;;;;;12.55;5.72;;;;;;;15.22;86.23;101254.44;6242720;22;20020;-82
2023/06/06 05:49:21;;;;;;;10.45;6.20;;;;;;;15.44;84.70;101250.53;6246047;22;20026;-83
2023/06/06 05:51:48;;;;;;;8.70;4.95;;;;;;;15.57;83.84;101253.81;6244603;22;20023;-79
2023/06/06 05:54:15;;;;;;;10.10;6.22;;;;;;;15.62;83.32;101257.19;6220734;22;20411;-82
2023/06/06 05:56:44;;;;;;;7.63;5.60;;;;;;;15.63;82.88;101254.56;6220354;22;20015;-82
2023/06/06 05:59:11;;;;;;;9.75;5.03;;;;;;;15.60;82.65;101257.22;6245130;22;20412;-83
2023/06/06 06:01:39;;;;;;;6.68;4.40;;;;;;;15.57;83.00;101254.66;6245009;22;20023;-78
2023/06/06 06:04:08;;;;;;;6.47;5.35;;;;;;;15.54;82.74;101258.25;6220765;22;20050;-81
2023/06/06 06:06:35;;;;;;;6.68;5.68;;;;;;;15.50;83.04;101255.66;6245411;22;20062;-78
2023/06/06 06:09:03;;;;;;;6.45;4.60;;;;;;;15.49;82.92;101252.19;6245951;22;20012;-82
2023/06/06 06:11:30;;;;;;;9.57;4.80;;;;;;;15.51;82.76;101257.41;6244921;22;20073;-78
2023/06/06 06:13:56;;;;;;;7.20;5.18;;;;;;;15.51;82.82;101257.41;6218737;22;20431;-82
2023/06/06 06:16:23;;;;;;;7.88;5.90;;;;;;;15.51;82.54;101260.94;6245075;22;20011;-78
2023/06/06 06:18:49;;;;;;;8.68;6.25;;;;;;;15.59;82.26;101262.53;6244862;22;20027;-79
2023/06/06 06:21:16;;;;;;;10.93;5.93;;;;;;;15.66;81.65;101259.75;6221591;22;20061;-79
2023/06/06 06:23:42;;;;;;;8.35;5.32;;;;;;;15.78;81.71;101260.41;6245853;22;20023;-77
2023/06/06 06:26:09;;;;;;;8.35;5.28;;;;;;;15.91;81.02;101258.41;6219916;22;20035;-79
2023/06/06 06:28:35;;;;;;;9.23;5.53;;;;;;;16.04;79.77;101262.53;6245833;22;20016;-81
2023/06/06 06:31:02;;;;;;;8.23;6.10;;;;;;;16.12;79.11;101259.72;6271118;22;20023;-81
2023/06/06 06:33:29;;;;;;;6.10;4.68;;;;;;;16.24;78.86;101266.47;6218916;22;20050;-83
2023/06/06 06:35:55;;;;;;;11.57;5.13;;;;;;;16.27;78.51;101258.47;6245741;22;20027;-78
2023/06/06 06:38:24;;;;;;;5.32;4.40;;;;;;;16.30;78.02;101263.72;6246249;22;20045;-79
2023/06/06 06:40:51;;;;;;;5.22;3.83;;;;;;;16.34;75.86;101268.00;6245440;22;20024;-82
2023/06/06 06:43:17;;;;;;;4.43;2.78;;;;;;;16.32;71.90;101262.78;6245584;22;20027;-80
2023/06/06 06:45:44;;;;;;;4.15;3.08;;;;;;;16.33;71.46;101266.28;6246593;22;20015;-78
2023/06/06 06:48:10;;;;;;;6.47;3.17;;;;;;;16.30;70.63;101258.44;6271456;22;20023;-77
2023/06/06 06:50:37;;;;;;;3.40;1.90;;;;;;;16.30;70.45;101250.50;6243292;22;20015;-78
2023/06/06 06:53:04;;;;;;;2.22;1.65;;;;;;;16.35;70.70;101259.19;6218318;22;20023;-78
2023/06/06 06:55:31;;;;;;;6.65;2.88;;;;;;;16.45;69.99;101260.72;6246541;22;20019;-85
2023/06/06 06:57:59;;;;;;;4.40;2.20;;;;;;;16.54;69.52;101264.88;6245215;22;20096;-77
2023/06/06 07:00:26;;;;;;;5.63;3.42;;;;;;;16.62;69.39;101262.94;6244156;22;20026;-78
2023/06/06 07:02:54;;;;;;;6.03;2.75;;;;;;;16.73;68.90;101265.31;6270720;22;20508;-79
2023/06/06 07:05:21;;;;;;;3.95;2.33;;;;;;;16.85;67.93;101270.28;6245495;22;20031;-79
2023/06/06 07:07:52;;;;;;;2.97;2.50;;;;;;;16.94;67.78;101266.56;6220752;22;20047;-80
2023/06/06 07:10:21;;;;;;;3.17;2.53;;;;;;;16.95;67.53;101268.31;6245820;22;20095;-78
2023/06/06 07:12:50;;;;;;;2.75;2.45;;;;;;;17.11;67.37;101265.28;6245298;22;20074;-81
2023/06/06 07:15:17;;;;;;;4.95;2.35;;;;;;;17.22;64.90;101267.63;6245341;22;20466;-79
2023/06/06 07:17:49;;;;;;;5.60;2.25;;;;;;;17.38;65.93;101279.53;6219098;22;20023;-83
2023/06/06 07:20:16;;;;;;;4.90;2.50;;;;;;;17.65;65.55;101282.31;6243632;22;20027;-80
2023/06/06 07:22:42;;;;;;;5.80;2.88;;;;;;;18.13;64.34;101287.16;6217046;22;20354;-82
2023/06/06 07:25:09;;;;;;;4.70;2.20;;;;;;;18.81;62.73;101284.97;6217731;22;20412;-83
2023/06/06 07:27:38;;;;;;;3.83;1.90;;;;;;;19.45;59.73;101273.06;6216930;22;20015;-81
2023/06/06 07:30:12;;;;;;;4.18;2.63;;;;;;;19.97;58.92;101274.72;6219097;22;20018;-78
2023/06/06 07:32:43;;;;;;;3.65;2.63;;;;;;;20.03;57.93;101271.84;6247263;22;20011;-86
2023/06/06 07:35:16;;;;;;;4.90;2.65;;;;;;;20.23;57.03;101271.03;6221424;22;20011;-80
2023/06/06 07:37:43;;;;;;;2.80;2.60;;;;;;;20.87;55.97;101264.06;6273006;22;20026;-78
2023/06/06 07:40:11;;;;;;;6.20;2.20;;;;;;;21.35;52.64;101261.97;6220647;22;20019;-80
2023/06/06 07:42:39;;;;;;;4.13;3.03;;;;;;;21.01;52.48;101263.47;6247040;22;20031;-79
2023/06/06 07:45:05;;;;;;;4.45;2.85;;;;;;;20.95;53.23;101261.94;6248771;22;20031;-89
2023/06/06 07:47:32;;;;;;;2.33;2.13;;;;;;;21.37;52.27;101264.56;6278629;22;20019;-79
2023/06/06 07:49:59;;;;;;;3.20;1.95;;;;;;;21.63;48.95;101263.44;6246139;22;20410;-80
2023/06/06 07:52:26;;;;;;;2.35;1.98;;;;;;;22.11;49.00;101253.22;6220606;22;20023;-79
2023/06/06 07:54:52;;;;;;;3.67;2.00;;;;;;;22.66;47.39;101257.69;6245973;22;20069;-77
2023/06/06 07:57:19;;;;;;;3.28;2.17;;;;;;;22.99;46.04;101254.22;6246486;22;20719;-80
2023/06/06 07:59:46;;;;;;;3.05;1.98;;;;;;;23.28;44.88;101260.78;6246240;22;20011;-79
2023/06/06 08:02:14;;;;;;;2.78;2.15;;;;;;;23.37;44.57;101269.22;6243299;22;20370;-79
2023/06/06 08:04:45;;;;;;;7.38;3.10;;;;;;;23.25;43.68;101268.06;6245939;22;20039;-79
2023/06/06 08:07:14;;;;;;;3.72;2.20;;;;;;;23.27;44.09;101264.38;6221623;22;20052;-77
2023/06/06 08:09:43;;;;;;;3.38;2.38;;;;;;;23.46;43.87;101260.72;6246217;22;20034;-78
2023/06/06 08:12:10;;;;;;;3.05;2.35;;;;;;;23.47;43.30;101262.44;6219293;22;20437;-78
2023/06/06 08:14:37;;;;;;;2.75;1.67;;;;;;;23.71;42.71;101252.22;6220623;22;20081;-80
2023/06/06 08:17:05;;;;;;;2.63;2.45;;;;;;;24.36;41.40;101259.34;6245772;22;20442;-79
2023/06/06 08:19:35;;;;;;;3.60;3.10;;;;;;;25.02;39.03;101259.13;6219711;22;20012;-78
2023/06/06 08:22:02;;;;;;;3.58;2.08;;;;;;;25.42;39.27;101267.44;6217995;22;20034;-78
2023/06/06 08:24:29;;;;;;;4.60;2.65;;;;;;;25.96;38.22;101260.50;6243597;22;20019;-78
2023/06/06 08:26:55;;;;;;;4.35;3.17;;;;;;;26.53;37.06;101252.31;6244585;22;20035;-80
2023/06/06 08:29:22;;;;;;;4.95;2.83;;;;;;;26.94;36.05;101265.75;6219200;22;20091;-78
2023/06/06 08:31:48;;;;;;;3.83;2.17;;;;;;;26.50;35.48;101262.38;6243062;22;20023;-81
2023/06/06 08:34:15;;;;;;;2.58;2.17;;;;;;;25.47;37.09;101264.47;6243334;22;20019;-86
2023/06/06 08:36:41;;;;;;;3.05;2.50;;;;;;;25.17;37.49;101265.38;6244382;22;20037;-81
2023/06/06 08:39:09;;;;;;;4.63;1.77;;;;;;;25.09;38.36;101258.66;6244321;22;20022;-80
2023/06/06 08:41:36;;;;;;;2.08;1.98;;;;;;;25.53;37.90;101253.38;6242753;22;20091;-82
2023/06/06 08:44:03;;;;;;;2.83;2.25;;;;;;;25.98;37.37;101250.53;6220945;22;20107;-80
2023/06/06 08:46:34;;;;;;;2.85;2.03;;;;;;;26.06;37.08;101251.78;6220345;22;20050;-81
2023/06/06 08:49:04;;;;;;;5.38;2.70;;;;;;;26.24;36.97;101249.75;6244354;22;20454;-79
2023/06/06 08:51:31;;;;;;;2.40;2.20;;;;;;;26.61;36.00;101254.47;6218653;22;20343;-82
2023/06/06 08:54:00;;;;;;;5.30;2.50;;;;;;;26.44;36.08;101254.72;6244665;22;20095;-81
2023/06/06 08:56:27;;;;;;;5.10;2.45;;;;;;;26.19;36.49;101257.22;6243832;22;20588;-78
2023/06/06 08:58:54;;;;;;;4.60;2.35;;;;;;;25.69;36.30;101266.66;6244689;22;20481;-80
2023/06/06 09:01:21;;;;;;;6.15;2.03;;;;;;;26.36;35.80;101258.81;6243151;22;20019;-78
2023/06/06 09:03:52;;;;;;;4.57;2.33;;;;;;;26.98;34.70;101254.66;6243336;22;20016;-78
2023/06/06 09:06:19;;;;;;;2.22;2.03;;;;;;;27.42;34.31;101263.31;6218721;22;20506;-84
2023/06/06 09:08:47;;;;;;;2.75;2.20;;;;;;;27.07;34.06;101264.78;6243927;22;20020;-80
2023/06/06 09:11:14;;;;;;;2.45;2.25;;;;;;;26.69;34.93;101264.69;6242943;22;20065;-79
2023/06/06 09:13:42;;;;;;;5.47;2.70;;;;;;;27.15;33.98;101263.41;6241750;22;20023;-84
2023/06/06 09:16:09;;;;;;;3.00;2.70;;;;;;;27.72;32.77;101259.41;6239916;22;20012;-85
2023/06/06 09:18:36;;;;;;;4.25;2.30;;;;;;;27.70;33.73;101261.34;6216044;22;20026;-79
2023/06/06 09:21:03;;;;;;;6.15;2.28;;;;;;;27.64;33.79;101256.41;6239113;22;20419;-82
2023/06/06 09:23:31;;;;;;;4.30;3.03;;;;;;;27.46;34.00;101255.91;6242419;22;20045;-79
2023/06/06 09:25:57;;;;;;;4.03;1.95;;;;;;;26.98;34.05;101261.88;6243600;22;20069;-82
2023/06/06 09:28:42;;;;;;;4.07;2.30;;;;;;;27.01;33.66;101262.53;6243459;22;20400;-79
2023/06/06 09:31:33;;;;;;;4.50;2.35;;;;;;;26.86;34.05;101259.06;6242854;22;20016;-79
2023/06/06 09:34:00;;;;;;;2.90;2.70;;;;;;;26.77;34.22;101264.22;6243601;22;20027;-82
2023/06/06 09:36:29;;;;;;;2.80;1.85;;;;;;;26.51;34.41;101256.06;6242841;22;20012;-79
2023/06/06 09:39:15;;;;;;;4.78;2.42;;;;;;;25.96;35.03;101271.22;6270349;22;20041;-79
2023/06/06 09:41:47;;;;;;;2.17;1.95;;;;;;;26.08;35.45;101262.44;6242298;22;20023;-82
2023/06/06 09:44:25;;;;;;;3.10;2.10;;;;;;;27.14;33.97;101257.16;6243244;22;20016;-81
2023/06/06 09:47:03;;;;;;;2.78;2.25;;;;;;;28.83;31.60;101259.31;6218735;22;20285;-86
2023/06/06 09:49:34;;;;;;;3.22;2.45;;;;;;;30.86;28.69;101251.16;6245440;22;20072;-83
2023/06/06 09:52:00;;;;;;;4.43;2.67;;;;;;;31.04;28.03;101253.25;6270175;22;20443;-78
2023/06/06 09:54:27;;;;;;;4.95;2.53;;;;;;;32.37;26.58;101253.19;6245162;22;20019;-78
2023/06/06 09:56:56;;;;;;;3.72;2.20;;;;;;;32.95;25.76;101249.59;6243722;22;20014;-78
2023/06/06 09:59:26;;;;;;;4.55;3.13;;;;;;;32.87;25.77;101248.63;6244177;22;20020;-78
2023/06/06 10:02:06;;;;;;;3.30;2.33;;;;;;;32.89;25.54;101252.88;6242807;22;20015;-80
2023/06/06 10:04:34;;;;;;;3.28;2.53;;;;;;;31.67;27.24;101250.47;6244732;22;20054;-78
2023/06/06 10:07:02;;;;;;;5.53;2.97;;;;;;;30.51;28.47;101252.31;6221277;22;20247;-82
2023/06/06 10:09:29;;;;;;;3.15;2.58;;;;;;;29.75;29.70;101254.91;6245652;22;20015;-77
2023/06/06 10:11:56;;;;;;;4.10;2.15;;;;;;;28.99;29.68;101261.69;6244183;22;20027;-80
2023/06/06 10:14:22;;;;;;;3.42;2.40;;;;;;;28.81;29.77;101253.22;6245178;22;20026;-81
2023/06/06 10:16:50;;;;;;;4.18;2.90;;;;;;;29.12;29.57;101256.19;6244516;22;20089;-79
2023/06/06 10:19:19;;;;;;;2.42;2.22;;;;;;;29.09;29.47;101256.44;6244218;22;20058;-79
2023/06/06 10:21:46;;;;;;;2.50;2.10;;;;;;;29.37;29.34;101257.00;6242604;22;20012;-82
2023/06/06 10:24:13;;;;;;;3.42;2.50;;;;;;;29.64;29.31;101244.97;6269911;22;20329;-86
2023/06/06 10:26:51;;;;;;;3.67;2.17;;;;;;;30.35;28.41;101244.59;6244910;22;20020;-80
2023/06/06 10:29:26;;;;;;;5.25;2.00;;;;;;;31.45;27.20;101246.09;6216004;22;20019;-81
2023/06/06 10:32:04;;;;;;;3.00;2.60;;;;;;;32.86;25.28;101245.06;6269920;22;20016;-80
2023/06/06 10:34:40;;;;;;;2.70;2.50;;;;;;;34.04;24.34;101244.59;6244079;22;20041;-80
2023/06/06 10:37:22;;;;;;;3.53;2.88;;;;;;;34.98;22.41;101239.69;6193940;22;20095;-79
2023/06/06 10:40:05;;;;;;;3.90;2.03;;;;;;;34.83;22.87;101240.22;6216876;22;20400;-84
2023/06/06 10:42:40;;;;;;;2.53;2.33;;;;;;;35.92;22.86;101232.50;6217159;22;20470;-80
2023/06/06 10:45:08;;;;;;;4.32;1.92;;;;;;;35.04;23.07;101234.44;6243580;22;20089;-81
2023/06/06 10:47:44;;;;;;;4.05;2.17;;;;;;;34.06;23.49;101242.59;6244492;22;20016;-82
2023/06/06 10:50:10;;;;;;;2.38;2.20;;;;;;;33.40;24.16;101237.22;6245627;22;20016;-85
2023/06/06 10:52:55;;;;;;;2.97;2.28;;;;;;;33.40;23.93;101234.50;6272441;22;20019;-80
2023/06/06 10:55:25;;;;;;;4.38;1.90;;;;;;;32.03;24.89;101242.72;6272129;22;20024;-79
2023/06/06 10:58:05;;;;;;;2.67;2.30;;;;;;;31.14;26.00;101236.13;6272261;22;20031;-83
2023/06/06 11:00:40;;;;;;;3.33;2.33;;;;;;;29.96;27.25;101242.41;6245367;22;20031;-81
2023/06/06 11:03:13;;;;;;;2.75;2.38;;;;;;;29.20;28.48;101237.59;6244709;22;20042;-80
2023/06/06 11:06:01;;;;;;;6.90;2.17;;;;;;;28.61;28.24;101234.97;6222114;22;20043;-79
2023/06/06 11:08:45;;;;;;;7.57;2.55;;;;;;;27.79;29.71;101231.09;6247299;22;20378;-79
2023/06/06 11:11:28;;;;;;;4.03;2.10;;;;;;;27.81;29.97;101236.34;6246599;22;20020;-80
2023/06/06 11:14:03;;;;;;;3.88;2.17;;;;;;;27.73;30.43;101232.41;6245586;22;20020;-79
2023/06/06 11:17:00;;;;;;;5.35;2.42;;;;;;;28.23;29.70;101229.66;6244858;22;20015;-80
2023/06/06 11:19:37;;;;;;;4.35;2.35;;;;;;;28.88;29.03;101230.19;6244476;22;20015;-82
2023/06/06 11:22:04;;;;;;;2.30;1.85;;;;;;;29.43;28.71;101231.38;6245798;22;20091;-80
2023/06/06 11:24:35;;;;;;;3.85;2.40;;;;;;;29.58;28.02;101229.28;6245660;22;20023;-79
2023/06/06 11:27:02;;;;;;;4.30;2.15;;;;;;;29.93;27.57;101223.72;6220175;22;20020;-80
2023/06/06 11:29:31;;;;;;;2.47;2.03;;;;;;;30.40;27.56;101222.59;6245787;22;20035;-79
2023/06/06 11:31:58;;;;;;;4.00;2.13;;;;;;;31.67;26.12;101220.72;6244627;22;20012;-79